sensor_id;sensor_type;location;lat;lon;timestamp;P1;durP1;ratioP1;P2;durP2;ratioP2
12762;SDS011;6445;52.490;13.378;2023-06-04T00:01:08;6.50;;;3.15;;
12762;SDS011;6445;52.490;13.378;2023-06-04T00:03:33;3.90;;;2.40;;
12762;SDS011;6445;52.490;13.378;2023-06-04T00:05:59;3.85;;;2.15;;
12762;SDS011;6445;52.490;13.378;2023-06-04T00:08:24;4.18;;;2.72;;
12762;SDS011;6445;52.490;13.378;2023-06-04T00:10:50;3.95;;;2.95;;
12762;SDS011;6445;52.490;13.378;2023-06-04T00:13:15;4.68;;;2.60;;
12762;SDS011;6445;52.490;13.378;2023-06-04T00:15:40;5.07;;;2.95;;
12762;SDS011;6445;52.490;13.378;2023-06-04T00:18:06;5.45;;;3.05;;
12762;SDS011;6445;52.490;13.378;2023-06-04T00:20:31;4.57;;;3.10;;
12762;SDS011;6445;52.490;13.378;2023-06-04T00:22:57;6.05;;;3.20;;
12762;SDS011;6445;52.490;13.378;2023-06-04T00:25:22;4.50;;;3.10;;
12762;SDS011;6445;52.490;13.378;2023-06-04T00:27:47;5.88;;;2.80;;
12762;SDS011;6445;52.490;13.378;2023-06-04T00:30:12;4.43;;;2.80;;
12762;SDS011;6445;52.490;13.378;2023-06-04T00:32:38;4.25;;;2.45;;
12762;SDS011;6445;52.490;13.378;2023-06-04T00:35:03;5.22;;;2.42;;
12762;SDS011;6445;52.490;13.378;2023-06-04T00:37:29;4.45;;;2.20;;
12762;SDS011;6445;52.490;13.378;2023-06-04T00:39:55;2.67;;;1.90;;
12762;SDS011;6445;52.490;13.378;2023-06-04T00:42:20;2.38;;;1.90;;
12762;SDS011;6445;52.490;13.378;2023-06-04T00:44:46;2.40;;;1.90;;
12762;SDS011;6445;52.490;13.378;2023-06-04T00:47:12;3.55;;;2.10;;
12762;SDS011;6445;52.490;13.378;2023-06-04T00:49:39;3.33;;;2.08;;
12762;SDS011;6445;52.490;13.378;2023-06-04T00:52:04;2.35;;;1.90;;
12762;SDS011;6445;52.490;13.378;2023-06-04T00:54:30;2.33;;;1.60;;
12762;SDS011;6445;52.490;13.378;2023-06-04T00:56:57;3.22;;;2.10;;
12762;SDS011;6445;52.490;13.378;2023-06-04T00:59:22;2.33;;;2.00;;
12762;SDS011;6445;52.490;13.378;2023-06-04T01:01:52;3.10;;;1.95;;
12762;SDS011;6445;52.490;13.378;2023-06-04T01:04:26;3.92;;;1.90;;
12762;SDS011;6445;52.490;13.378;2023-06-04T01:06:56;3.03;;;1.90;;
12762;SDS011;6445;52.490;13.378;2023-06-04T01:09:24;4.00;;;1.80;;
12762;SDS011;6445;52.490;13.378;2023-06-04T01:11:53;3.53;;;1.90;;
12762;SDS011;6445;52.490;13.378;2023-06-04T01:14:19;2.70;;;1.83;;
12762;SDS011;6445;52.490;13.378;2023-06-04T01:17:01;3.42;;;1.90;;
12762;SDS011;6445;52.490;13.378;2023-06-04T01:25:02;2.50;;;1.80;;
12762;SDS011;6445;52.490;13.378;2023-06-04T01:27:29;2.08;;;1.73;;
12762;SDS011;6445;52.490;13.378;2023-06-04T01:29:55;2.85;;;1.73;;
12762;SDS011;6445;52.490;13.378;2023-06-04T01:32:25;2.67;;;1.70;;
12762;SDS011;6445;52.490;13.378;2023-06-04T01:34:51;1.95;;;1.58;;
12762;SDS011;6445;52.490;13.378;2023-06-04T01:37:16;2.42;;;1.50;;
12762;SDS011;6445;52.490;13.378;2023-06-04T01:39:42;2.75;;;1.90;;
12762;SDS011;6445;52.490;13.378;2023-06-04T01:42:07;5.55;;;2.10;;
12762;SDS011;6445;52.490;13.378;2023-06-04T01:44:33;2.30;;;1.60;;
12762;SDS011;6445;52.490;13.378;2023-06-04T01:46:59;3.92;;;1.55;;
12762;SDS011;6445;52.490;13.378;2023-06-04T01:49:24;2.13;;;1.52;;
12762;SDS011;6445;52.490;13.378;2023-06-04T01:51:49;2.22;;;1.60;;
12762;SDS011;6445;52.490;13.378;2023-06-04T01:54:15;3.47;;;1.70;;
12762;SDS011;6445;52.490;13.378;2023-06-04T01:56:41;2.58;;;1.70;;
12762;SDS011;6445;52.490;13.378;2023-06-04T01:59:06;3.40;;;1.70;;
12762;SDS011;6445;52.490;13.378;2023-06-04T02:01:32;2.55;;;1.70;;
12762;SDS011;6445;52.490;13.378;2023-06-04T02:03:58;2.33;;;1.70;;
12762;SDS011;6445;52.490;13.378;2023-06-04T02:06:23;2.75;;;1.95;;
12762;SDS011;6445;52.490;13.378;2023-06-04T02:08:49;4.47;;;1.88;;
12762;SDS011;6445;52.490;13.378;2023-06-04T02:11:15;3.05;;;2.10;;
12762;SDS011;6445;52.490;13.378;2023-06-04T02:13:40;3.63;;;2.05;;
12762;SDS011;6445;52.490;13.378;2023-06-04T02:16:05;4.50;;;2.00;;
12762;SDS011;6445;52.490;13.378;2023-06-04T02:18:30;2.20;;;1.80;;
12762;SDS011;6445;52.490;13.378;2023-06-04T02:20:56;4.85;;;2.20;;
12762;SDS011;6445;52.490;13.378;2023-06-04T02:23:21;3.08;;;2.00;;
12762;SDS011;6445;52.490;13.378;2023-06-04T02:25:47;2.35;;;1.80;;
12762;SDS011;6445;52.490;13.378;2023-06-04T02:28:13;3.67;;;2.00;;
12762;SDS011;6445;52.490;13.378;2023-06-04T02:30:38;3.15;;;1.92;;
12762;SDS011;6445;52.490;13.378;2023-06-04T02:33:04;3.22;;;2.10;;
12762;SDS011;6445;52.490;13.378;2023-06-04T02:35:29;4.03;;;2.13;;
12762;SDS011;6445;52.490;13.378;2023-06-04T02:37:55;5.30;;;1.90;;
12762;SDS011;6445;52.490;13.378;2023-06-04T02:40:22;2.40;;;1.75;;
12762;SDS011;6445;52.490;13.378;2023-06-04T02:42:48;6.30;;;2.28;;
12762;SDS011;6445;52.490;13.378;2023-06-04T02:45:13;4.82;;;2.38;;
12762;SDS011;6445;52.490;13.378;2023-06-04T02:47:38;3.42;;;1.98;;
12762;SDS011;6445;52.490;13.378;2023-06-04T02:50:04;2.63;;;2.10;;
12762;SDS011;6445;52.490;13.378;2023-06-04T02:52:30;2.78;;;2.00;;
12762;SDS011;6445;52.490;13.378;2023-06-04T02:54:55;3.20;;;2.00;;
12762;SDS011;6445;52.490;13.378;2023-06-04T02:57:21;3.80;;;2.08;;
12762;SDS011;6445;52.490;13.378;2023-06-04T02:59:46;2.92;;;2.00;;
12762;SDS011;6445;52.490;13.378;2023-06-04T03:02:11;2.78;;;2.25;;
12762;SDS011;6445;52.490;13.378;2023-06-04T03:04:37;5.95;;;2.28;;
12762;SDS011;6445;52.490;13.378;2023-06-04T03:07:03;6.78;;;1.80;;
12762;SDS011;6445;52.490;13.378;2023-06-04T03:09:32;3.28;;;2.10;;
12762;SDS011;6445;52.490;13.378;2023-06-04T03:12:01;4.22;;;2.20;;
12762;SDS011;6445;52.490;13.378;2023-06-04T03:14:27;4.38;;;2.10;;
12762;SDS011;6445;52.490;13.378;2023-06-04T03:16:57;2.78;;;2.03;;
12762;SDS011;6445;52.490;13.378;2023-06-04T03:19:26;3.03;;;2.28;;
12762;SDS011;6445;52.490;13.378;2023-06-04T03:21:51;5.28;;;2.10;;
12762;SDS011;6445;52.490;13.378;2023-06-04T03:24:17;5.30;;;2.22;;
12762;SDS011;6445;52.490;13.378;2023-06-04T03:26:42;4.20;;;2.00;;
12762;SDS011;6445;52.490;13.378;2023-06-04T03:29:07;4.43;;;2.10;;
12762;SDS011;6445;52.490;13.378;2023-06-04T03:31:32;5.15;;;2.50;;
12762;SDS011;6445;52.490;13.378;2023-06-04T03:33:58;3.47;;;2.25;;
12762;SDS011;6445;52.490;13.378;2023-06-04T03:36:23;3.95;;;2.50;;
12762;SDS011;6445;52.490;13.378;2023-06-04T03:38:56;3.10;;;2.35;;
12762;SDS011;6445;52.490;13.378;2023-06-04T03:41:22;7.15;;;2.55;;
12762;SDS011;6445;52.490;13.378;2023-06-04T03:43:47;5.18;;;2.35;;
12762;SDS011;6445;52.490;13.378;2023-06-04T03:46:12;4.10;;;2.42;;
12762;SDS011;6445;52.490;13.378;2023-06-04T03:48:38;2.72;;;2.03;;
12762;SDS011;6445;52.490;13.378;2023-06-04T03:51:03;4.63;;;2.22;;
12762;SDS011;6445;52.490;13.378;2023-06-04T03:53:28;3.95;;;2.33;;
12762;SDS011;6445;52.490;13.378;2023-06-04T03:55:53;4.18;;;2.10;;
12762;SDS011;6445;52.490;13.378;2023-06-04T03:58:18;3.80;;;2.55;;
12762;SDS011;6445;52.490;13.378;2023-06-04T04:00:46;6.68;;;2.50;;
12762;SDS011;6445;52.490;13.378;2023-06-04T04:03:11;3.35;;;2.22;;
12762;SDS011;6445;52.490;13.378;2023-06-04T04:05:36;3.58;;;2.17;;
12762;SDS011;6445;52.490;13.378;2023-06-04T04:08:02;3.72;;;2.30;;
12762;SDS011;6445;52.490;13.378;2023-06-04T04:10:27;4.60;;;2.45;;
12762;SDS011;6445;52.490;13.378;2023-06-04T04:12:53;4.57;;;2.17;;
12762;SDS011;6445;52.490;13.378;2023-06-04T04:15:19;5.72;;;2.47;;
12762;SDS011;6445;52.490;13.378;2023-06-04T04:17:45;3.75;;;2.33;;
12762;SDS011;6445;52.490;13.378;2023-06-04T04:20:10;3.90;;;2.00;;
12762;SDS011;6445;52.490;13.378;2023-06-04T04:22:39;3.00;;;2.30;;
12762;SDS011;6445;52.490;13.378;2023-06-04T04:25:05;2.45;;;2.00;;
12762;SDS011;6445;52.490;13.378;2023-06-04T04:27:32;4.28;;;2.00;;
12762;SDS011;6445;52.490;13.378;2023-06-04T04:29:59;2.85;;;1.77;;
12762;SDS011;6445;52.490;13.378;2023-06-04T04:32:25;3.20;;;1.90;;
12762;SDS011;6445;52.490;13.378;2023-06-04T04:34:52;2.78;;;1.70;;
12762;SDS011;6445;52.490;13.378;2023-06-04T04:37:19;5.53;;;2.03;;
12762;SDS011;6445;52.490;13.378;2023-06-04T04:39:49;3.15;;;1.85;;
12762;SDS011;6445;52.490;13.378;2023-06-04T04:42:17;3.65;;;2.10;;
12762;SDS011;6445;52.490;13.378;2023-06-04T04:44:43;4.68;;;1.88;;
12762;SDS011;6445;52.490;13.378;2023-06-04T04:47:12;2.28;;;1.88;;
12762;SDS011;6445;52.490;13.378;2023-06-04T04:49:37;3.97;;;2.03;;
12762;SDS011;6445;52.490;13.378;2023-06-04T04:52:03;2.60;;;2.10;;
12762;SDS011;6445;52.490;13.378;2023-06-04T04:54:28;4.10;;;1.85;;
12762;SDS011;6445;52.490;13.378;2023-06-04T04:56:53;4.60;;;1.90;;
12762;SDS011;6445;52.490;13.378;2023-06-04T04:59:18;3.53;;;1.90;;
12762;SDS011;6445;52.490;13.378;2023-06-04T05:01:44;2.92;;;1.90;;
12762;SDS011;6445;52.490;13.378;2023-06-04T05:04:09;4.80;;;2.00;;
12762;SDS011;6445;52.490;13.378;2023-06-04T05:06:34;3.67;;;2.03;;
12762;SDS011;6445;52.490;13.378;2023-06-04T05:09:00;3.17;;;2.00;;
12762;SDS011;6445;52.490;13.378;2023-06-04T05:11:25;3.47;;;1.73;;
12762;SDS011;6445;52.490;13.378;2023-06-04T05:13:50;3.45;;;1.80;;
12762;SDS011;6445;52.490;13.378;2023-06-04T05:16:16;2.97;;;1.92;;
12762;SDS011;6445;52.490;13.378;2023-06-04T05:18:41;3.88;;;1.77;;
12762;SDS011;6445;52.490;13.378;2023-06-04T05:21:09;6.43;;;2.00;;
12762;SDS011;6445;52.490;13.378;2023-06-04T05:23:36;5.00;;;2.20;;
12762;SDS011;6445;52.490;13.378;2023-06-04T05:26:02;5.13;;;1.85;;
12762;SDS011;6445;52.490;13.378;2023-06-04T05:28:28;4.80;;;2.30;;
12762;SDS011;6445;52.490;13.378;2023-06-04T05:30:53;2.20;;;1.88;;
12762;SDS011;6445;52.490;13.378;2023-06-04T05:33:23;3.95;;;1.90;;
12762;SDS011;6445;52.490;13.378;2023-06-04T05:35:49;2.20;;;1.80;;
12762;SDS011;6445;52.490;13.378;2023-06-04T05:38:14;9.75;;;2.50;;
12762;SDS011;6445;52.490;13.378;2023-06-04T05:40:45;2.92;;;2.03;;
12762;SDS011;6445;52.490;13.378;2023-06-04T05:43:11;4.43;;;1.85;;
12762;SDS011;6445;52.490;13.378;2023-06-04T05:45:36;4.20;;;2.00;;
12762;SDS011;6445;52.490;13.378;2023-06-04T05:48:02;5.00;;;2.05;;
12762;SDS011;6445;52.490;13.378;2023-06-04T05:50:28;2.47;;;1.90;;
12762;SDS011;6445;52.490;13.378;2023-06-04T05:52:53;4.57;;;1.83;;
12762;SDS011;6445;52.490;13.378;2023-06-04T05:55:18;2.22;;;1.75;;
12762;SDS011;6445;52.490;13.378;2023-06-04T05:57:44;7.70;;;2.08;;
12762;SDS011;6445;52.490;13.378;2023-06-04T06:00:09;3.22;;;1.80;;
12762;SDS011;6445;52.490;13.378;2023-06-04T06:02:35;4.15;;;1.92;;
12762;SDS011;6445;52.490;13.378;2023-06-04T06:05:02;3.85;;;1.70;;
12762;SDS011;6445;52.490;13.378;2023-06-04T06:07:27;4.65;;;1.98;;
12762;SDS011;6445;52.490;13.378;2023-06-04T06:09:52;2.90;;;1.80;;
12762;SDS011;6445;52.490;13.378;2023-06-04T06:12:17;4.35;;;1.60;;
12762;SDS011;6445;52.490;13.378;2023-06-04T06:14:43;3.17;;;2.05;;
12762;SDS011;6445;52.490;13.378;2023-06-04T06:17:08;3.17;;;1.80;;
12762;SDS011;6445;52.490;13.378;2023-06-04T06:19:33;4.28;;;1.45;;
12762;SDS011;6445;52.490;13.378;2023-06-04T06:21:58;5.97;;;2.15;;
12762;SDS011;6445;52.490;13.378;2023-06-04T06:24:24;2.60;;;1.60;;
12762;SDS011;6445;52.490;13.378;2023-06-04T06:26:49;6.22;;;2.20;;
12762;SDS011;6445;52.490;13.378;2023-06-04T06:29:15;3.10;;;1.70;;
12762;SDS011;6445;52.490;13.378;2023-06-04T06:31:40;2.75;;;1.50;;
12762;SDS011;6445;52.490;13.378;2023-06-04T06:34:05;3.92;;;1.77;;
12762;SDS011;6445;52.490;13.378;2023-06-04T06:36:31;4.30;;;2.05;;
12762;SDS011;6445;52.490;13.378;2023-06-04T06:38:57;1.98;;;1.38;;
12762;SDS011;6445;52.490;13.378;2023-06-04T06:41:22;2.38;;;1.50;;
12762;SDS011;6445;52.490;13.378;2023-06-04T06:43:48;3.97;;;1.50;;
12762;SDS011;6445;52.490;13.378;2023-06-04T06:46:13;2.80;;;1.60;;
12762;SDS011;6445;52.490;13.378;2023-06-04T06:48:38;2.10;;;1.52;;
12762;SDS011;6445;52.490;13.378;2023-06-04T06:51:03;2.55;;;1.48;;
12762;SDS011;6445;52.490;13.378;2023-06-04T06:53:29;4.40;;;1.50;;
12762;SDS011;6445;52.490;13.378;2023-06-04T06:55:54;1.77;;;1.27;;
12762;SDS011;6445;52.490;13.378;2023-06-04T06:58:19;1.58;;;1.10;;
12762;SDS011;6445;52.490;13.378;2023-06-04T07:00:46;5.40;;;1.58;;
12762;SDS011;6445;52.490;13.378;2023-06-04T07:03:11;2.50;;;1.30;;
12762;SDS011;6445;52.490;13.378;2023-06-04T07:05:36;5.30;;;3.35;;
12762;SDS011;6445;52.490;13.378;2023-06-04T07:08:01;3.10;;;1.60;;
12762;SDS011;6445;52.490;13.378;2023-06-04T07:10:29;2.22;;;1.42;;
12762;SDS011;6445;52.490;13.378;2023-06-04T07:12:55;3.50;;;1.50;;
12762;SDS011;6445;52.490;13.378;2023-06-04T07:15:20;5.53;;;1.40;;
12762;SDS011;6445;52.490;13.378;2023-06-04T07:17:45;4.43;;;1.70;;
12762;SDS011;6445;52.490;13.378;2023-06-04T07:20:10;3.13;;;1.20;;
12762;SDS011;6445;52.490;13.378;2023-06-04T07:22:37;1.23;;;1.08;;
12762;SDS011;6445;52.490;13.378;2023-06-04T07:25:03;4.03;;;1.25;;
12762;SDS011;6445;52.490;13.378;2023-06-04T07:27:28;2.35;;;1.38;;
12762;SDS011;6445;52.490;13.378;2023-06-04T07:29:54;3.60;;;1.35;;
12762;SDS011;6445;52.490;13.378;2023-06-04T07:32:19;3.92;;;1.02;;
12762;SDS011;6445;52.490;13.378;2023-06-04T07:34:44;2.97;;;1.50;;
12762;SDS011;6445;52.490;13.378;2023-06-04T07:37:10;1.73;;;1.27;;
12762;SDS011;6445;52.490;13.378;2023-06-04T07:39:35;3.28;;;1.40;;
12762;SDS011;6445;52.490;13.378;2023-06-04T07:42:01;3.13;;;1.40;;
12762;SDS011;6445;52.490;13.378;2023-06-04T07:44:26;4.00;;;2.22;;
12762;SDS011;6445;52.490;13.378;2023-06-04T07:46:51;4.78;;;1.20;;
12762;SDS011;6445;52.490;13.378;2023-06-04T07:49:17;2.22;;;1.30;;
12762;SDS011;6445;52.490;13.378;2023-06-04T07:51:42;3.30;;;1.55;;
12762;SDS011;6445;52.490;13.378;2023-06-04T07:54:07;2.23;;;1.30;;
12762;SDS011;6445;52.490;13.378;2023-06-04T07:56:32;5.13;;;4.13;;
12762;SDS011;6445;52.490;13.378;2023-06-04T07:58:58;1.48;;;1.20;;
12762;SDS011;6445;52.490;13.378;2023-06-04T08:01:23;1.65;;;0.90;;
12762;SDS011;6445;52.490;13.378;2023-06-04T08:03:49;3.05;;;1.38;;
12762;SDS011;6445;52.490;13.378;2023-06-04T08:06:16;5.45;;;1.52;;
12762;SDS011;6445;52.490;13.378;2023-06-04T08:08:42;3.95;;;2.55;;
12762;SDS011;6445;52.490;13.378;2023-06-04T08:11:10;6.05;;;3.30;;
12762;SDS011;6445;52.490;13.378;2023-06-04T08:13:36;3.63;;;1.65;;
12762;SDS011;6445;52.490;13.378;2023-06-04T08:16:01;1.80;;;1.13;;
12762;SDS011;6445;52.490;13.378;2023-06-04T08:18:26;3.40;;;1.13;;
12762;SDS011;6445;52.490;13.378;2023-06-04T08:20:51;4.18;;;1.27;;
12762;SDS011;6445;52.490;13.378;2023-06-04T08:23:17;2.08;;;1.13;;
12762;SDS011;6445;52.490;13.378;2023-06-04T08:25:42;2.53;;;1.20;;
12762;SDS011;6445;52.490;13.378;2023-06-04T08:28:07;1.58;;;1.27;;
12762;SDS011;6445;52.490;13.378;2023-06-04T08:30:33;1.83;;;1.13;;
12762;SDS011;6445;52.490;13.378;2023-06-04T08:33:00;1.35;;;1.25;;
12762;SDS011;6445;52.490;13.378;2023-06-04T08:35:26;1.92;;;1.17;;
12762;SDS011;6445;52.490;13.378;2023-06-04T08:37:51;2.35;;;1.05;;
12762;SDS011;6445;52.490;13.378;2023-06-04T08:40:17;1.50;;;1.17;;
12762;SDS011;6445;52.490;13.378;2023-06-04T08:42:42;1.40;;;1.00;;
12762;SDS011;6445;52.490;13.378;2023-06-04T08:45:10;1.17;;;0.90;;
12762;SDS011;6445;52.490;13.378;2023-06-04T08:47:43;2.40;;;1.10;;
12762;SDS011;6445;52.490;13.378;2023-06-04T08:50:10;3.58;;;1.27;;
12762;SDS011;6445;52.490;13.378;2023-06-04T08:52:37;1.40;;;1.10;;
12762;SDS011;6445;52.490;13.378;2023-06-04T08:55:03;3.13;;;1.20;;
12762;SDS011;6445;52.490;13.378;2023-06-04T08:57:30;3.60;;;1.20;;
12762;SDS011;6445;52.490;13.378;2023-06-04T08:59:55;3.97;;;2.22;;
12762;SDS011;6445;52.490;13.378;2023-06-04T09:02:21;2.92;;;1.42;;
12762;SDS011;6445;52.490;13.378;2023-06-04T09:04:46;2.60;;;1.17;;
12762;SDS011;6445;52.490;13.378;2023-06-04T09:07:12;4.10;;;1.50;;
12762;SDS011;6445;52.490;13.378;2023-06-04T09:09:38;1.40;;;1.17;;
12762;SDS011;6445;52.490;13.378;2023-06-04T09:12:05;2.35;;;1.30;;
12762;SDS011;6445;52.490;13.378;2023-06-04T09:14:35;1.45;;;1.20;;
12762;SDS011;6445;52.490;13.378;2023-06-04T09:17:00;8.10;;;1.40;;
12762;SDS011;6445;52.490;13.378;2023-06-04T09:19:26;3.43;;;1.97;;
12762;SDS011;6445;52.490;13.378;2023-06-04T09:21:55;2.75;;;1.30;;
12762;SDS011;6445;52.490;13.378;2023-06-04T09:24:22;1.98;;;0.90;;
12762;SDS011;6445;52.490;13.378;2023-06-04T09:26:49;1.40;;;1.00;;
12762;SDS011;6445;52.490;13.378;2023-06-04T09:29:15;1.77;;;1.13;;
12762;SDS011;6445;52.490;13.378;2023-06-04T09:31:43;2.90;;;1.20;;
12762;SDS011;6445;52.490;13.378;2023-06-04T09:34:09;1.67;;;1.50;;
12762;SDS011;6445;52.490;13.378;2023-06-04T09:36:35;3.17;;;1.20;;
12762;SDS011;6445;52.490;13.378;2023-06-04T09:39:14;4.10;;;1.40;;
12762;SDS011;6445;52.490;13.378;2023-06-04T09:41:42;3.13;;;1.20;;
12762;SDS011;6445;52.490;13.378;2023-06-04T09:44:08;4.70;;;1.50;;
12762;SDS011;6445;52.490;13.378;2023-06-04T09:46:35;2.17;;;1.25;;
12762;SDS011;6445;52.490;13.378;2023-06-04T09:49:02;2.28;;;1.15;;
12762;SDS011;6445;52.490;13.378;2023-06-04T09:51:31;2.33;;;1.50;;
12762;SDS011;6445;52.490;13.378;2023-06-04T09:53:58;3.45;;;1.63;;
12762;SDS011;6445;52.490;13.378;2023-06-04T09:56:24;6.45;;;1.40;;
12762;SDS011;6445;52.490;13.378;2023-06-04T09:58:53;2.00;;;1.30;;
12762;SDS011;6445;52.490;13.378;2023-06-04T10:01:20;4.13;;;1.55;;
12762;SDS011;6445;52.490;13.378;2023-06-04T10:03:48;4.97;;;1.50;;
12762;SDS011;6445;52.490;13.378;2023-06-04T10:06:15;2.60;;;1.40;;
12762;SDS011;6445;52.490;13.378;2023-06-04T10:08:43;4.50;;;1.30;;
12762;SDS011;6445;52.490;13.378;2023-06-04T10:11:10;2.13;;;1.60;;
12762;SDS011;6445;52.490;13.378;2023-06-04T10:13:44;4.88;;;1.50;;
12762;SDS011;6445;52.490;13.378;2023-06-04T10:16:13;5.40;;;1.83;;
12762;SDS011;6445;52.490;13.378;2023-06-04T10:18:39;3.65;;;1.70;;
12762;SDS011;6445;52.490;13.378;2023-06-04T10:21:04;10.55;;;1.90;;
12762;SDS011;6445;52.490;13.378;2023-06-04T10:23:31;7.15;;;2.10;;
12762;SDS011;6445;52.490;13.378;2023-06-04T10:25:56;1.95;;;1.30;;
12762;SDS011;6445;52.490;13.378;2023-06-04T10:28:22;3.13;;;1.30;;
12762;SDS011;6445;52.490;13.378;2023-06-04T10:30:48;3.38;;;1.35;;
12762;SDS011;6445;52.490;13.378;2023-06-04T10:33:15;2.63;;;1.52;;
12762;SDS011;6445;52.490;13.378;2023-06-04T10:35:42;2.28;;;1.60;;
12762;SDS011;6445;52.490;13.378;2023-06-04T10:38:11;5.60;;;1.38;;
12762;SDS011;6445;52.490;13.378;2023-06-04T10:40:39;2.92;;;1.30;;
12762;SDS011;6445;52.490;13.378;2023-06-04T10:43:05;3.30;;;1.42;;
12762;SDS011;6445;52.490;13.378;2023-06-04T10:45:32;5.53;;;1.70;;
12762;SDS011;6445;52.490;13.378;2023-06-04T10:48:00;2.40;;;1.00;;
12762;SDS011;6445;52.490;13.378;2023-06-04T10:50:27;3.47;;;2.25;;
12762;SDS011;6445;52.490;13.378;2023-06-04T10:52:52;1.77;;;1.23;;
12762;SDS011;6445;52.490;13.378;2023-06-04T10:55:19;2.95;;;1.15;;
12762;SDS011;6445;52.490;13.378;2023-06-04T10:57:54;1.83;;;1.20;;
12762;SDS011;6445;52.490;13.378;2023-06-04T11:00:21;2.72;;;1.40;;
12762;SDS011;6445;52.490;13.378;2023-06-04T11:02:53;2.15;;;1.33;;
12762;SDS011;6445;52.490;13.378;2023-06-04T11:05:20;5.45;;;1.20;;
12762;SDS011;6445;52.490;13.378;2023-06-04T11:07:47;1.52;;;1.25;;
12762;SDS011;6445;52.490;13.378;2023-06-04T11:10:14;3.33;;;1.20;;
12762;SDS011;6445;52.490;13.378;2023-06-04T11:12:45;3.60;;;1.50;;
12762;SDS011;6445;52.490;13.378;2023-06-04T11:15:11;2.08;;;1.48;;
12762;SDS011;6445;52.490;13.378;2023-06-04T11:17:37;3.78;;;1.50;;
12762;SDS011;6445;52.490;13.378;2023-06-04T11:20:03;1.15;;;1.05;;
12762;SDS011;6445;52.490;13.378;2023-06-04T11:22:31;3.10;;;1.60;;
12762;SDS011;6445;52.490;13.378;2023-06-04T11:24:57;3.05;;;1.50;;
12762;SDS011;6445;52.490;13.378;2023-06-04T11:27:24;2.38;;;1.35;;
12762;SDS011;6445;52.490;13.378;2023-06-04T11:29:49;3.72;;;1.33;;
12762;SDS011;6445;52.490;13.378;2023-06-04T11:32:22;1.67;;;1.40;;
12762;SDS011;6445;52.490;13.378;2023-06-04T11:34:48;7.00;;;1.80;;
12762;SDS011;6445;52.490;13.378;2023-06-04T11:37:14;1.85;;;1.17;;
12762;SDS011;6445;52.490;13.378;2023-06-04T11:39:39;2.15;;;1.38;;
12762;SDS011;6445;52.490;13.378;2023-06-04T11:42:08;4.30;;;1.70;;
12762;SDS011;6445;52.490;13.378;2023-06-04T11:44:39;2.38;;;1.30;;
12762;SDS011;6445;52.490;13.378;2023-06-04T11:47:10;2.95;;;1.40;;
12762;SDS011;6445;52.490;13.378;2023-06-04T11:49:35;2.00;;;1.42;;
12762;SDS011;6445;52.490;13.378;2023-06-04T11:52:01;2.97;;;1.33;;
12762;SDS011;6445;52.490;13.378;2023-06-04T11:54:26;1.95;;;1.40;;
12762;SDS011;6445;52.490;13.378;2023-06-04T11:56:52;1.73;;;1.38;;
12762;SDS011;6445;52.490;13.378;2023-06-04T11:59:18;2.42;;;1.33;;
12762;SDS011;6445;52.490;13.378;2023-06-04T12:01:44;2.55;;;1.55;;
12762;SDS011;6445;52.490;13.378;2023-06-04T12:04:18;3.42;;;1.23;;
12762;SDS011;6445;52.490;13.378;2023-06-04T12:07:00;6.05;;;1.40;;
12762;SDS011;6445;52.490;13.378;2023-06-04T12:09:30;1.95;;;1.30;;
12762;SDS011;6445;52.490;13.378;2023-06-04T12:12:01;3.15;;;1.25;;
12762;SDS011;6445;52.490;13.378;2023-06-04T12:14:28;2.15;;;1.50;;
12762;SDS011;6445;52.490;13.378;2023-06-04T12:16:57;2.92;;;1.30;;
12762;SDS011;6445;52.490;13.378;2023-06-04T12:19:27;1.77;;;1.20;;
12762;SDS011;6445;52.490;13.378;2023-06-04T12:22:03;2.55;;;1.40;;
12762;SDS011;6445;52.490;13.378;2023-06-04T12:24:30;3.67;;;1.23;;
12762;SDS011;6445;52.490;13.378;2023-06-04T12:27:06;1.70;;;1.35;;
12762;SDS011;6445;52.490;13.378;2023-06-04T12:29:36;1.77;;;1.17;;
12762;SDS011;6445;52.490;13.378;2023-06-04T12:32:02;2.97;;;1.60;;
12762;SDS011;6445;52.490;13.378;2023-06-04T12:34:29;2.65;;;1.67;;
12762;SDS011;6445;52.490;13.378;2023-06-04T12:36:54;3.20;;;1.75;;
12762;SDS011;6445;52.490;13.378;2023-06-04T12:39:19;3.67;;;1.73;;
12762;SDS011;6445;52.490;13.378;2023-06-04T12:41:47;2.80;;;1.95;;
12762;SDS011;6445;52.490;13.378;2023-06-04T12:44:13;1.88;;;1.33;;
12762;SDS011;6445;52.490;13.378;2023-06-04T12:46:38;3.80;;;1.52;;
12762;SDS011;6445;52.490;13.378;2023-06-04T12:49:03;4.03;;;1.57;;
12762;SDS011;6445;52.490;13.378;2023-06-04T12:51:30;4.07;;;1.38;;
12762;SDS011;6445;52.490;13.378;2023-06-04T12:53:55;2.50;;;1.17;;
12762;SDS011;6445;52.490;13.378;2023-06-04T12:56:20;2.75;;;1.25;;
12762;SDS011;6445;52.490;13.378;2023-06-04T12:58:46;3.53;;;1.38;;
12762;SDS011;6445;52.490;13.378;2023-06-04T13:01:12;2.70;;;2.40;;
12762;SDS011;6445;52.490;13.378;2023-06-04T13:03:39;2.42;;;1.60;;
12762;SDS011;6445;52.490;13.378;2023-06-04T13:06:05;2.10;;;1.63;;
12762;SDS011;6445;52.490;13.378;2023-06-04T13:08:30;2.08;;;1.30;;
12762;SDS011;6445;52.490;13.378;2023-06-04T13:10:56;2.70;;;1.70;;
12762;SDS011;6445;52.490;13.378;2023-06-04T13:13:21;2.50;;;1.50;;
12762;SDS011;6445;52.490;13.378;2023-06-04T13:15:47;1.67;;;1.35;;
12762;SDS011;6445;52.490;13.378;2023-06-04T13:18:12;2.88;;;1.67;;
12762;SDS011;6445;52.490;13.378;2023-06-04T13:20:37;3.25;;;1.70;;
12762;SDS011;6445;52.490;13.378;2023-06-04T13:23:05;1.75;;;1.30;;
12762;SDS011;6445;52.490;13.378;2023-06-04T13:25:30;4.15;;;1.67;;
12762;SDS011;6445;52.490;13.378;2023-06-04T13:27:57;8.48;;;2.22;;
12762;SDS011;6445;52.490;13.378;2023-06-04T13:30:23;4.43;;;1.45;;
12762;SDS011;6445;52.490;13.378;2023-06-04T13:32:49;4.47;;;1.73;;
12762;SDS011;6445;52.490;13.378;2023-06-04T13:35:14;1.65;;;1.55;;
12762;SDS011;6445;52.490;13.378;2023-06-04T13:37:40;3.17;;;1.52;;
12762;SDS011;6445;52.490;13.378;2023-06-04T13:40:05;1.63;;;1.50;;
12762;SDS011;6445;52.490;13.378;2023-06-04T13:42:31;3.55;;;1.40;;
12762;SDS011;6445;52.490;13.378;2023-06-04T13:44:56;3.13;;;1.77;;
12762;SDS011;6445;52.490;13.378;2023-06-04T13:47:22;3.83;;;1.77;;
12762;SDS011;6445;52.490;13.378;2023-06-04T13:49:47;4.63;;;1.73;;
12762;SDS011;6445;52.490;13.378;2023-06-04T13:52:12;3.92;;;1.90;;
12762;SDS011;6445;52.490;13.378;2023-06-04T13:54:38;2.80;;;1.85;;
12762;SDS011;6445;52.490;13.378;2023-06-04T13:57:03;2.17;;;1.50;;
12762;SDS011;6445;52.490;13.378;2023-06-04T13:59:29;7.50;;;1.70;;
12762;SDS011;6445;52.490;13.378;2023-06-04T14:01:56;2.78;;;1.52;;
12762;SDS011;6445;52.490;13.378;2023-06-04T14:04:21;4.15;;;1.45;;
12762;SDS011;6445;52.490;13.378;2023-06-04T14:06:46;3.20;;;1.35;;
12762;SDS011;6445;52.490;13.378;2023-06-04T14:09:12;4.53;;;2.60;;
12762;SDS011;6445;52.490;13.378;2023-06-04T14:11:38;4.50;;;1.40;;
12762;SDS011;6445;52.490;13.378;2023-06-04T14:14:04;1.63;;;1.42;;
12762;SDS011;6445;52.490;13.378;2023-06-04T14:16:29;1.77;;;1.40;;
12762;SDS011;6445;52.490;13.378;2023-06-04T14:18:54;3.50;;;1.50;;
12762;SDS011;6445;52.490;13.378;2023-06-04T14:21:20;3.63;;;1.60;;
12762;SDS011;6445;52.490;13.378;2023-06-04T14:23:45;4.65;;;1.50;;
12762;SDS011;6445;52.490;13.378;2023-06-04T14:26:11;4.38;;;1.45;;
12762;SDS011;6445;52.490;13.378;2023-06-04T14:28:36;1.70;;;1.60;;
12762;SDS011;6445;52.490;13.378;2023-06-04T14:31:02;2.28;;;1.45;;
12762;SDS011;6445;52.490;13.378;2023-06-04T14:33:28;3.70;;;1.77;;
12762;SDS011;6445;52.490;13.378;2023-06-04T14:35:53;3.15;;;1.60;;
12762;SDS011;6445;52.490;13.378;2023-06-04T14:38:18;2.35;;;1.70;;
12762;SDS011;6445;52.490;13.378;2023-06-04T14:40:43;3.22;;;1.63;;
12762;SDS011;6445;52.490;13.378;2023-06-04T14:43:11;2.75;;;1.60;;
12762;SDS011;6445;52.490;13.378;2023-06-04T14:45:37;4.40;;;1.70;;
12762;SDS011;6445;52.490;13.378;2023-06-04T14:48:03;3.83;;;1.35;;